sensor_id;sensor_type;location;lat;lon;timestamp;pressure;altitude;pressure_sealevel;temperature;humidity
34145;BME280;20422;53.014;8.886;2022-07-23T00:01:28;101824.91;;;15.48;100.00
34145;BME280;20422;53.014;8.886;2022-07-23T00:03:54;101823.19;;;15.47;100.00
34145;BME280;20422;53.014;8.886;2022-07-23T00:06:20;101820.38;;;15.49;100.00
34145;BME280;20422;53.014;8.886;2022-07-23T00:08:45;101810.31;;;15.38;100.00
34145;BME280;20422;53.014;8.886;2022-07-23T00:11:11;101817.97;;;15.19;100.00
34145;BME280;20422;53.014;8.886;2022-07-23T00:13:36;101827.78;;;15.20;100.00
34145;BME280;20422;53.014;8.886;2022-07-23T00:16:02;101774.97;;;14.90;100.00
34145;BME280;20422;53.014;8.886;2022-07-23T00:18:27;101819.38;;;15.11;100.00
34145;BME280;20422;53.014;8.886;2022-07-23T00:20:53;101826.03;;;15.06;100.00
34145;BME280;20422;53.014;8.886;2022-07-23T00:23:18;101827.03;;;15.18;100.00
34145;BME280;20422;53.014;8.886;2022-07-23T00:25:44;101804.53;;;15.04;100.00
34145;BME280;20422;53.014;8.886;2022-07-23T00:28:10;101821.31;;;15.22;100.00
34145;BME280;20422;53.014;8.886;2022-07-23T00:30:36;101800.44;;;14.99;100.00
34145;BME280;20422;53.014;8.886;2022-07-23T00:33:06;101823.81;;;15.13;100.00
34145;BME280;20422;53.014;8.886;2022-07-23T00:35:34;101796.50;;;14.77;100.00
34145;BME280;20422;53.014;8.886;2022-07-23T00:38:00;101822.84;;;14.87;100.00
34145;BME280;20422;53.014;8.886;2022-07-23T00:40:27;101819.19;;;14.75;100.00
34145;BME280;20422;53.014;8.886;2022-07-23T00:42:53;101823.50;;;14.77;100.00
34145;BME280;20422;53.014;8.886;2022-07-23T00:45:19;101774.78;;;14.39;100.00
34145;BME280;20422;53.014;8.886;2022-07-23T00:47:45;101818.59;;;14.70;100.00
34145;BME280;20422;53.014;8.886;2022-07-23T00:50:11;101821.94;;;14.61;100.00
34145;BME280;20422;53.014;8.886;2022-07-23T00:52:38;101828.19;;;14.61;100.00
34145;BME280;20422;53.014;8.886;2022-07-23T00:55:04;101827.13;;;14.64;100.00
34145;BME280;20422;53.014;8.886;2022-07-23T00:57:30;101801.91;;;14.50;100.00
34145;BME280;20422;53.014;8.886;2022-07-23T00:59:56;101795.28;;;14.42;100.00
34145;BME280;20422;53.014;8.886;2022-07-23T01:02:23;101775.00;;;14.36;100.00
34145;BME280;20422;53.014;8.886;2022-07-23T01:04:49;101827.44;;;14.59;100.00
34145;BME280;20422;53.014;8.886;2022-07-23T01:07:15;101818.84;;;14.52;100.00
34145;BME280;20422;53.014;8.886;2022-07-23T01:09:40;101817.22;;;14.50;100.00
34145;BME280;20422;53.014;8.886;2022-07-23T01:12:06;101805.31;;;14.40;100.00
34145;BME280;20422;53.014;8.886;2022-07-23T01:14:32;101781.31;;;14.35;100.00
34145;BME280;20422;53.014;8.886;2022-07-23T01:16:57;101786.38;;;14.27;100.00
34145;BME280;20422;53.014;8.886;2022-07-23T01:19:23;101732.41;;;14.00;100.00
34145;BME280;20422;53.014;8.886;2022-07-23T01:21:50;101795.88;;;14.33;100.00
34145;BME280;20422;53.014;8.886;2022-07-23T01:24:17;101780.31;;;14.24;100.00
34145;BME280;20422;53.014;8.886;2022-07-23T01:26:46;101780.53;;;14.20;100.00
34145;BME280;20422;53.014;8.886;2022-07-23T01:29:12;101783.88;;;14.24;100.00
34145;BME280;20422;53.014;8.886;2022-07-23T01:31:38;101782.19;;;14.09;100.00
34145;BME280;20422;53.014;8.886;2022-07-23T01:34:03;101807.00;;;14.14;100.00
34145;BME280;20422;53.014;8.886;2022-07-23T01:36:29;101802.47;;;14.14;100.00
34145;BME280;20422;53.014;8.886;2022-07-23T01:38:54;101801.69;;;14.12;100.00
34145;BME280;20422;53.014;8.886;2022-07-23T01:41:20;101797.28;;;14.11;100.00
34145;BME280;20422;53.014;8.886;2022-07-23T01:43:45;101777.28;;;14.01;100.00
34145;BME280;20422;53.014;8.886;2022-07-23T01:46:11;101794.28;;;14.16;100.00
34145;BME280;20422;53.014;8.886;2022-07-23T01:48:36;101797.19;;;14.13;100.00
34145;BME280;20422;53.014;8.886;2022-07-23T01:51:02;101796.88;;;14.17;100.00
34145;BME280;20422;53.014;8.886;2022-07-23T01:53:27;101799.78;;;14.14;100.00
34145;BME280;20422;53.014;8.886;2022-07-23T01:55:53;101794.78;;;14.08;100.00
34145;BME280;20422;53.014;8.886;2022-07-23T01:58:18;101791.13;;;14.09;100.00
34145;BME280;20422;53.014;8.886;2022-07-23T02:00:44;101783.81;;;14.11;100.00
34145;BME280;20422;53.014;8.886;2022-07-23T02:03:10;101776.34;;;14.02;100.00
34145;BME280;20422;53.014;8.886;2022-07-23T02:05:35;101776.78;;;14.09;100.00
34145;BME280;20422;53.014;8.886;2022-07-23T02:08:01;101785.06;;;14.20;100.00
34145;BME280;20422;53.014;8.886;2022-07-23T02:10:27;101756.00;;;13.97;100.00
34145;BME280;20422;53.014;8.886;2022-07-23T02:12:52;101765.03;;;14.10;100.00
34145;BME280;20422;53.014;8.886;2022-07-23T02:15:18;101760.91;;;14.04;100.00
34145;BME280;20422;53.014;8.886;2022-07-23T02:17:43;101764.16;;;14.09;100.00
34145;BME280;20422;53.014;8.886;2022-07-23T02:20:10;101706.22;;;13.75;100.00
34145;BME280;20422;53.014;8.886;2022-07-23T02:22:36;101724.97;;;13.77;100.00
34145;BME280;20422;53.014;8.886;2022-07-23T02:25:03;101755.44;;;14.06;100.00
34145;BME280;20422;53.014;8.886;2022-07-23T02:27:28;101763.50;;;14.06;100.00
34145;BME280;20422;53.014;8.886;2022-07-23T02:29:53;101756.84;;;14.11;100.00
34145;BME280;20422;53.014;8.886;2022-07-23T02:32:19;101709.84;;;13.88;100.00
34145;BME280;20422;53.014;8.886;2022-07-23T02:34:46;101741.84;;;14.07;100.00
34145;BME280;20422;53.014;8.886;2022-07-23T02:37:11;101736.88;;;14.01;100.00
34145;BME280;20422;53.014;8.886;2022-07-23T02:39:36;101743.16;;;14.14;100.00
34145;BME280;20422;53.014;8.886;2022-07-23T02:42:02;101740.78;;;14.10;100.00
34145;BME280;20422;53.014;8.886;2022-07-23T02:44:27;101738.84;;;14.12;100.00
34145;BME280;20422;53.014;8.886;2022-07-23T02:46:52;101741.22;;;14.16;100.00
34145;BME280;20422;53.014;8.886;2022-07-23T02:49:19;101739.41;;;14.17;100.00
34145;BME280;20422;53.014;8.886;2022-07-23T02:51:44;101740.47;;;14.14;100.00
34145;BME280;20422;53.014;8.886;2022-07-23T02:54:09;101753.75;;;14.17;100.00
34145;BME280;20422;53.014;8.886;2022-07-23T02:56:35;101754.00;;;14.27;100.00
34145;BME280;20422;53.014;8.886;2022-07-23T02:59:00;101704.72;;;13.98;100.00
34145;BME280;20422;53.014;8.886;2022-07-23T03:01:26;101745.72;;;14.30;100.00
34145;BME280;20422;53.014;8.886;2022-07-23T03:03:51;101749.03;;;14.21;100.00
34145;BME280;20422;53.014;8.886;2022-07-23T03:06:16;101754.91;;;14.13;100.00
34145;BME280;20422;53.014;8.886;2022-07-23T03:08:43;101728.97;;;13.98;100.00
34145;BME280;20422;53.014;8.886;2022-07-23T03:11:08;101744.31;;;14.25;100.00
34145;BME280;20422;53.014;8.886;2022-07-23T03:13:37;101739.59;;;14.14;100.00
34145;BME280;20422;53.014;8.886;2022-07-23T03:16:02;101720.06;;;14.10;100.00
34145;BME280;20422;53.014;8.886;2022-07-23T03:18:28;101743.88;;;14.04;100.00
34145;BME280;20422;53.014;8.886;2022-07-23T03:20:53;101730.69;;;13.99;100.00
34145;BME280;20422;53.014;8.886;2022-07-23T03:23:19;101723.13;;;13.91;100.00
34145;BME280;20422;53.014;8.886;2022-07-23T03:25:44;101702.06;;;13.84;100.00
34145;BME280;20422;53.014;8.886;2022-07-23T03:28:12;101728.31;;;13.80;100.00
34145;BME280;20422;53.014;8.886;2022-07-23T03:30:37;101713.34;;;13.76;100.00
34145;BME280;20422;53.014;8.886;2022-07-23T03:33:02;101702.41;;;13.65;100.00
34145;BME280;20422;53.014;8.886;2022-07-23T03:35:28;101735.41;;;13.96;100.00
34145;BME280;20422;53.014;8.886;2022-07-23T03:37:53;101723.63;;;13.84;100.00
34145;BME280;20422;53.014;8.886;2022-07-23T03:40:18;101711.03;;;13.70;100.00
34145;BME280;20422;53.014;8.886;2022-07-23T03:42:44;101731.88;;;13.81;100.00
34145;BME280;20422;53.014;8.886;2022-07-23T03:45:10;101714.91;;;13.66;100.00
34145;BME280;20422;53.014;8.886;2022-07-23T03:47:36;101724.03;;;13.64;100.00
34145;BME280;20422;53.014;8.886;2022-07-23T03:50:02;101740.78;;;13.69;100.00
34145;BME280;20422;53.014;8.886;2022-07-23T03:52:27;101748.75;;;13.70;100.00
34145;BME280;20422;53.014;8.886;2022-07-23T03:54:53;101734.03;;;13.61;100.00
34145;BME280;20422;53.014;8.886;2022-07-23T03:57:18;101729.72;;;13.59;100.00
34145;BME280;20422;53.014;8.886;2022-07-23T03:59:43;101725.28;;;13.72;100.00
34145;BME280;20422;53.014;8.886;2022-07-23T04:02:09;101725.84;;;13.63;100.00
34145;BME280;20422;53.014;8.886;2022-07-23T04:04:34;101725.19;;;13.59;100.00
34145;BME280;20422;53.014;8.886;2022-07-23T04:07:00;101744.03;;;13.59;100.00
34145;BME280;20422;53.014;8.886;2022-07-23T04:09:26;101730.31;;;13.50;100.00
34145;BME280;20422;53.014;8.886;2022-07-23T04:11:51;101723.00;;;13.38;100.00
34145;BME280;20422;53.014;8.886;2022-07-23T04:14:17;101739.91;;;13.40;100.00
34145;BME280;20422;53.014;8.886;2022-07-23T04:16:42;101738.28;;;13.37;100.00
34145;BME280;20422;53.014;8.886;2022-07-23T04:19:08;101710.84;;;13.16;100.00
34145;BME280;20422;53.014;8.886;2022-07-23T04:21:33;101750.31;;;13.32;100.00
34145;BME280;20422;53.014;8.886;2022-07-23T04:23:58;101748.84;;;13.26;100.00
34145;BME280;20422;53.014;8.886;2022-07-23T04:26:24;101748.19;;;13.22;100.00
34145;BME280;20422;53.014;8.886;2022-07-23T04:28:49;101758.97;;;13.37;100.00
34145;BME280;20422;53.014;8.886;2022-07-23T04:31:14;101744.03;;;13.17;100.00
34145;BME280;20422;53.014;8.886;2022-07-23T04:33:40;101708.16;;;13.02;100.00
34145;BME280;20422;53.014;8.886;2022-07-23T04:36:05;101778.78;;;13.36;100.00
34145;BME280;20422;53.014;8.886;2022-07-23T04:38:30;101741.31;;;13.17;100.00
34145;BME280;20422;53.014;8.886;2022-07-23T04:40:57;101756.66;;;13.30;100.00
34145;BME280;20422;53.014;8.886;2022-07-23T04:43:23;101770.97;;;13.45;100.00
34145;BME280;20422;53.014;8.886;2022-07-23T04:45:48;101759.63;;;13.40;100.00
34145;BME280;20422;53.014;8.886;2022-07-23T04:48:13;101758.66;;;13.41;100.00
34145;BME280;20422;53.014;8.886;2022-07-23T04:50:39;101764.91;;;13.42;100.00
34145;BME280;20422;53.014;8.886;2022-07-23T04:53:04;101770.00;;;13.46;100.00
34145;BME280;20422;53.014;8.886;2022-07-23T04:55:30;101778.03;;;13.48;100.00
34145;BME280;20422;53.014;8.886;2022-07-23T04:57:55;101771.63;;;13.77;100.00
34145;BME280;20422;53.014;8.886;2022-07-23T05:00:21;101770.44;;;14.10;100.00
34145;BME280;20422;53.014;8.886;2022-07-23T05:02:46;101728.25;;;14.09;100.00
34145;BME280;20422;53.014;8.886;2022-07-23T05:05:11;101777.19;;;14.44;100.00
34145;BME280;20422;53.014;8.886;2022-07-23T05:07:37;101766.78;;;15.17;100.00
34145;BME280;20422;53.014;8.886;2022-07-23T05:10:02;101781.97;;;16.79;100.00
34145;BME280;20422;53.014;8.886;2022-07-23T05:12:28;101782.63;;;18.18;99.51
34145;BME280;20422;53.014;8.886;2022-07-23T05:14:53;101779.09;;;19.65;92.69
34145;BME280;20422;53.014;8.886;2022-07-23T05:17:18;101757.84;;;20.39;86.55
34145;BME280;20422;53.014;8.886;2022-07-23T05:19:44;101779.81;;;20.76;84.02
34145;BME280;20422;53.014;8.886;2022-07-23T05:22:09;101779.41;;;21.94;80.49
34145;BME280;20422;53.014;8.886;2022-07-23T05:24:35;101777.41;;;22.41;77.79
34145;BME280;20422;53.014;8.886;2022-07-23T05:27:00;101785.75;;;22.85;75.84
34145;BME280;20422;53.014;8.886;2022-07-23T05:29:25;101782.13;;;23.20;74.43
34145;BME280;20422;53.014;8.886;2022-07-23T05:31:51;101779.34;;;23.64;72.03
34145;BME280;20422;53.014;8.886;2022-07-23T05:34:16;101743.66;;;23.21;72.31
34145;BME280;20422;53.014;8.886;2022-07-23T05:36:41;101769.22;;;23.12;73.53
34145;BME280;20422;53.014;8.886;2022-07-23T05:39:07;101755.44;;;23.48;72.44
34145;BME280;20422;53.014;8.886;2022-07-23T05:41:32;101768.91;;;23.67;71.95
34145;BME280;20422;53.014;8.886;2022-07-23T05:43:57;101769.94;;;24.51;70.54
34145;BME280;20422;53.014;8.886;2022-07-23T05:46:23;101780.94;;;24.75;68.32
34145;BME280;20422;53.014;8.886;2022-07-23T05:48:48;101743.56;;;24.90;67.66
34145;BME280;20422;53.014;8.886;2022-07-23T05:51:24;101781.28;;;25.29;67.92
34145;BME280;20422;53.014;8.886;2022-07-23T05:53:50;101771.31;;;26.08;64.80
34145;BME280;20422;53.014;8.886;2022-07-23T05:56:16;101784.44;;;26.83;61.59
34145;BME280;20422;53.014;8.886;2022-07-23T05:58:42;101779.06;;;26.66;62.32
34145;BME280;20422;53.014;8.886;2022-07-23T06:01:08;101777.69;;;25.28;64.83
34145;BME280;20422;53.014;8.886;2022-07-23T06:03:33;101772.97;;;25.86;64.14
34145;BME280;20422;53.014;8.886;2022-07-23T06:05:59;101780.16;;;26.18;62.49
34145;BME280;20422;53.014;8.886;2022-07-23T06:08:24;101779.66;;;26.54;61.52
34145;BME280;20422;53.014;8.886;2022-07-23T06:10:49;101784.56;;;26.04;61.25
34145;BME280;20422;53.014;8.886;2022-07-23T06:13:17;101786.63;;;26.33;60.66
34145;BME280;20422;53.014;8.886;2022-07-23T06:15:42;101783.00;;;27.32;59.49
34145;BME280;20422;53.014;8.886;2022-07-23T06:18:08;101782.25;;;27.38;58.61
34145;BME280;20422;53.014;8.886;2022-07-23T06:20:33;101782.53;;;27.44;57.86
34145;BME280;20422;53.014;8.886;2022-07-23T06:22:58;101783.09;;;26.78;58.49
34145;BME280;20422;53.014;8.886;2022-07-23T06:25:24;101794.63;;;24.75;63.89
34145;BME280;20422;53.014;8.886;2022-07-23T06:27:49;101793.16;;;23.88;66.16
34145;BME280;20422;53.014;8.886;2022-07-23T06:30:15;101793.84;;;22.77;69.29
34145;BME280;20422;53.014;8.886;2022-07-23T06:32:44;101777.38;;;21.68;72.94
34145;BME280;20422;53.014;8.886;2022-07-23T06:35:10;101762.41;;;21.16;75.25
34145;BME280;20422;53.014;8.886;2022-07-23T06:37:35;101782.25;;;20.79;76.55
34145;BME280;20422;53.014;8.886;2022-07-23T06:40:01;101798.28;;;20.63;77.98
34145;BME280;20422;53.014;8.886;2022-07-23T06:42:26;101802.34;;;22.01;75.35
34145;BME280;20422;53.014;8.886;2022-07-23T06:44:51;101795.50;;;24.17;67.39
34145;BME280;20422;53.014;8.886;2022-07-23T06:47:17;101793.84;;;25.07;63.80
34145;BME280;20422;53.014;8.886;2022-07-23T06:49:42;101789.38;;;26.33;59.01
34145;BME280;20422;53.014;8.886;2022-07-23T06:52:07;101790.81;;;27.06;57.81
34145;BME280;20422;53.014;8.886;2022-07-23T06:54:33;101790.84;;;27.73;56.46
34145;BME280;20422;53.014;8.886;2022-07-23T06:56:59;101798.13;;;27.51;56.66
34145;BME280;20422;53.014;8.886;2022-07-23T06:59:24;101797.75;;;28.28;55.06
34145;BME280;20422;53.014;8.886;2022-07-23T07:01:49;101790.47;;;29.21;53.20
34145;BME280;20422;53.014;8.886;2022-07-23T07:04:15;101771.88;;;28.65;54.30
34145;BME280;20422;53.014;8.886;2022-07-23T07:06:40;101782.28;;;29.34;53.03
34145;BME280;20422;53.014;8.886;2022-07-23T07:09:06;101766.75;;;29.05;51.73
34145;BME280;20422;53.014;8.886;2022-07-23T07:11:31;101785.25;;;29.32;53.74
34145;BME280;20422;53.014;8.886;2022-07-23T07:13:56;101762.16;;;27.00;55.80
34145;BME280;20422;53.014;8.886;2022-07-23T07:16:22;101770.88;;;25.00;59.19
34145;BME280;20422;53.014;8.886;2022-07-23T07:18:47;101793.06;;;23.20;63.95
34145;BME280;20422;53.014;8.886;2022-07-23T07:21:12;101789.03;;;23.32;65.19
34145;BME280;20422;53.014;8.886;2022-07-23T07:23:38;101786.91;;;23.00;65.48
34145;BME280;20422;53.014;8.886;2022-07-23T07:26:03;101774.22;;;24.53;61.96
34145;BME280;20422;53.014;8.886;2022-07-23T07:28:28;101753.13;;;26.07;58.65
34145;BME280;20422;53.014;8.886;2022-07-23T07:30:54;101779.78;;;26.29;58.01
34145;BME280;20422;53.014;8.886;2022-07-23T07:33:19;101762.09;;;24.80;60.27
34145;BME280;20422;53.014;8.886;2022-07-23T07:35:46;101780.03;;;23.40;63.22
34145;BME280;20422;53.014;8.886;2022-07-23T07:38:12;101765.31;;;21.98;66.74
34145;BME280;20422;53.014;8.886;2022-07-23T07:40:37;101784.06;;;21.18;69.58
34145;BME280;20422;53.014;8.886;2022-07-23T07:43:02;101782.09;;;21.76;69.43
34145;BME280;20422;53.014;8.886;2022-07-23T07:45:28;101775.56;;;24.33;64.03
34145;BME280;20422;53.014;8.886;2022-07-23T07:47:54;101776.06;;;25.67;59.78
34145;BME280;20422;53.014;8.886;2022-07-23T07:50:20;101781.41;;;27.53;57.00
34145;BME280;20422;53.014;8.886;2022-07-23T07:52:46;101778.94;;;28.53;53.34
34145;BME280;20422;53.014;8.886;2022-07-23T07:55:12;101793.09;;;25.70;56.45
34145;BME280;20422;53.014;8.886;2022-07-23T07:57:38;101786.50;;;24.33;61.78
34145;BME280;20422;53.014;8.886;2022-07-23T08:00:08;101792.25;;;24.72;60.97
34145;BME280;20422;53.014;8.886;2022-07-23T08:02:45;101785.19;;;23.43;63.06
34145;BME280;20422;53.014;8.886;2022-07-23T08:05:11;101792.38;;;22.65;65.91
34145;BME280;20422;53.014;8.886;2022-07-23T08:07:37;101798.75;;;21.73;67.86
34145;BME280;20422;53.014;8.886;2022-07-23T08:10:05;101778.81;;;20.77;71.14
34145;BME280;20422;53.014;8.886;2022-07-23T08:12:51;101817.97;;;21.81;70.82
34145;BME280;20422;53.014;8.886;2022-07-23T08:15:21;101813.59;;;22.71;68.73
34145;BME280;20422;53.014;8.886;2022-07-23T08:17:48;101808.44;;;23.21;64.65
34145;BME280;20422;53.014;8.886;2022-07-23T08:20:17;101810.75;;;23.34;66.57
34145;BME280;20422;53.014;8.886;2022-07-23T08:22:51;101808.94;;;22.63;68.12
34145;BME280;20422;53.014;8.886;2022-07-23T08:25:22;101813.91;;;22.22;69.90
34145;BME280;20422;53.014;8.886;2022-07-23T08:27:49;101818.13;;;21.70;70.60
34145;BME280;20422;53.014;8.886;2022-07-23T08:30:14;101800.41;;;22.21;71.90
34145;BME280;20422;53.014;8.886;2022-07-23T08:35:35;101821.63;;;21.62;72.07
34145;BME280;20422;53.014;8.886;2022-07-23T08:38:04;101833.13;;;21.18;73.03
34145;BME280;20422;53.014;8.886;2022-07-23T08:40:31;101838.31;;;20.92;74.37
34145;BME280;20422;53.014;8.886;2022-07-23T08:42:57;101815.16;;;20.38;76.00
34145;BME280;20422;53.014;8.886;2022-07-23T08:45:24;101841.22;;;20.31;77.17
34145;BME280;20422;53.014;8.886;2022-07-23T08:47:55;101828.66;;;20.09;78.99
34145;BME280;20422;53.014;8.886;2022-07-23T08:50:24;101829.31;;;19.91;81.05
34145;BME280;20422;53.014;8.886;2022-07-23T08:52:50;101835.16;;;19.87;81.10
34145;BME280;20422;53.014;8.886;2022-07-23T08:55:21;101843.47;;;19.85;81.43
34145;BME280;20422;53.014;8.886;2022-07-23T08:57:56;101838.53;;;20.00;80.90
34145;BME280;20422;53.014;8.886;2022-07-23T09:00:22;101846.31;;;20.14;81.58
34145;BME280;20422;53.014;8.886;2022-07-23T09:02:48;101843.91;;;19.90;81.52
34145;BME280;20422;53.014;8.886;2022-07-23T09:05:15;101826.66;;;19.71;81.05
34145;BME280;20422;53.014;8.886;2022-07-23T09:10:28;101843.53;;;19.53;80.76
34145;BME280;20422;53.014;8.886;2022-07-23T09:12:53;101841.97;;;19.30;81.92
34145;BME280;20422;53.014;8.886;2022-07-23T09:15:18;101855.53;;;19.09;82.33
34145;BME280;20422;53.014;8.886;2022-07-23T09:17:43;101816.19;;;18.71;83.22
34145;BME280;20422;53.014;8.886;2022-07-23T09:20:15;101862.84;;;19.09;83.28
34145;BME280;20422;53.014;8.886;2022-07-23T09:22:47;101848.97;;;19.12;83.45
34145;BME280;20422;53.014;8.886;2022-07-23T09:25:15;101836.72;;;19.38;82.50
34145;BME280;20422;53.014;8.886;2022-07-23T09:27:54;101851.72;;;20.05;80.95
34145;BME280;20422;53.014;8.886;2022-07-23T09:30:27;101840.69;;;20.46;79.67
34145;BME280;20422;53.014;8.886;2022-07-23T09:33:13;101846.78;;;21.47;74.83
34145;BME280;20422;53.014;8.886;2022-07-23T09:38:12;101836.56;;;21.49;70.00
34145;BME280;20422;53.014;8.886;2022-07-23T09:40:38;101850.50;;;21.55;71.08
34145;BME280;20422;53.014;8.886;2022-07-23T09:43:03;101836.75;;;21.37;71.68
34145;BME280;20422;53.014;8.886;2022-07-23T09:45:28;101836.34;;;21.79;70.47
34145;BME280;20422;53.014;8.886;2022-07-23T09:48:15;101854.00;;;22.22;69.43
34145;BME280;20422;53.014;8.886;2022-07-23T09:50:41;101845.63;;;22.33;67.82
34145;BME280;20422;53.014;8.886;2022-07-23T09:53:07;101844.88;;;22.58;68.60
34145;BME280;20422;53.014;8.886;2022-07-23T09:55:34;101843.31;;;22.83;69.03
34145;BME280;20422;53.014;8.886;2022-07-23T09:58:05;101839.56;;;22.84;66.20
34145;BME280;20422;53.014;8.886;2022-07-23T10:00:32;101847.44;;;23.05;67.78
34145;BME280;20422;53.014;8.886;2022-07-23T10:02:58;101846.19;;;22.37;67.42
34145;BME280;20422;53.014;8.886;2022-07-23T10:05:25;101841.09;;;22.69;66.33
34145;BME280;20422;53.014;8.886;2022-07-23T10:07:51;101830.53;;;22.56;67.55
34145;BME280;20422;53.014;8.886;2022-07-23T10:10:17;101843.59;;;22.80;69.25
34145;BME280;20422;53.014;8.886;2022-07-23T10:12:45;101824.41;;;22.90;68.27
34145;BME280;20422;53.014;8.886;2022-07-23T10:15:16;101842.78;;;22.52;65.58
34145;BME280;20422;53.014;8.886;2022-07-23T10:17:42;101832.94;;;22.14;69.29
34145;BME280;20422;53.014;8.886;2022-07-23T10:20:08;101851.19;;;22.59;67.63
34145;BME280;20422;53.014;8.886;2022-07-23T10:22:37;101841.16;;;22.77;65.99
34145;BME280;20422;53.014;8.886;2022-07-23T10:25:32;101837.38;;;22.88;67.25
34145;BME280;20422;53.014;8.886;2022-07-23T10:36:44;101827.44;;;23.05;65.54
34145;BME280;20422;53.014;8.886;2022-07-23T10:39:26;101843.19;;;22.75;64.69
34145;BME280;20422;53.014;8.886;2022-07-23T10:42:07;101848.34;;;22.33;65.39
34145;BME280;20422;53.014;8.886;2022-07-23T10:44:39;101848.56;;;22.22;66.01
34145;BME280;20422;53.014;8.886;2022-07-23T10:47:06;101855.78;;;22.41;67.63
34145;BME280;20422;53.014;8.886;2022-07-23T10:49:40;101844.66;;;21.87;66.55
34145;BME280;20422;53.014;8.886;2022-07-23T10:57:10;101851.84;;;22.53;67.50
34145;BME280;20422;53.014;8.886;2022-07-23T11:02:31;101849.81;;;23.44;62.87
34145;BME280;20422;53.014;8.886;2022-07-23T11:05:18;101841.88;;;23.76;59.92
34145;BME280;20422;53.014;8.886;2022-07-23T11:10:41;101842.03;;;24.09;64.64
34145;BME280;20422;53.014;8.886;2022-07-23T11:16:03;101840.91;;;22.53;64.84
34145;BME280;20422;53.014;8.886;2022-07-23T11:26:43;101845.44;;;22.07;66.31
34145;BME280;20422;53.014;8.886;2022-07-23T11:32:06;101842.38;;;21.83;66.11
34145;BME280;20422;53.014;8.886;2022-07-23T11:37:06;101837.28;;;22.35;65.04
34145;BME280;20422;53.014;8.886;2022-07-23T11:39:33;101849.56;;;22.21;64.78
34145;BME280;20422;53.014;8.886;2022-07-23T11:42:00;101837.28;;;21.97;64.95
34145;BME280;20422;53.014;8.886;2022-07-23T11:44:29;101844.94;;;21.94;67.68
34145;BME280;20422;53.014;8.886;2022-07-23T11:47:03;101829.66;;;21.64;67.21
34145;BME280;20422;53.014;8.886;2022-07-23T11:49:28;101851.56;;;21.82;68.42
34145;BME280;20422;53.014;8.886;2022-07-23T11:52:10;101836.13;;;21.53;68.15
34145;BME280;20422;53.014;8.886;2022-07-23T11:54:47;101837.31;;;21.12;68.16
34145;BME280;20422;53.014;8.886;2022-07-23T11:57:13;101843.91;;;21.09;69.19
34145;BME280;20422;53.014;8.886;2022-07-23T11:59:39;101848.69;;;21.36;69.56
34145;BME280;20422;53.014;8.886;2022-07-23T12:02:06;101845.34;;;21.23;68.82
34145;BME280;20422;53.014;8.886;2022-07-23T12:04:42;101853.09;;;21.18;69.07
34145;BME280;20422;53.014;8.886;2022-07-23T12:07:36;101862.41;;;21.16;69.56
34145;BME280;20422;53.014;8.886;2022-07-23T12:12:40;101855.56;;;22.24;69.32
34145;BME280;20422;53.014;8.886;2022-07-23T12:15:07;101849.31;;;22.42;67.18
34145;BME280;20422;53.014;8.886;2022-07-23T12:17:35;101827.16;;;22.45;67.61
34145;BME280;20422;53.014;8.886;2022-07-23T12:20:03;101851.22;;;22.77;66.75
34145;BME280;20422;53.014;8.886;2022-07-23T12:22:40;101848.47;;;22.86;65.53
34145;BME280;20422;53.014;8.886;2022-07-23T12:25:14;101845.78;;;23.30;64.62
34145;BME280;20422;53.014;8.886;2022-07-23T12:27:40;101819.47;;;22.94;63.23
34145;BME280;20422;53.014;8.886;2022-07-23T12:30:23;101834.63;;;22.43;62.82
34145;BME280;20422;53.014;8.886;2022-07-23T12:32:52;101844.50;;;22.99;66.38
34145;BME280;20422;53.014;8.886;2022-07-23T12:35:18;101844.00;;;23.21;64.74
34145;BME280;20422;53.014;8.886;2022-07-23T12:37:46;101845.38;;;22.72;64.62
34145;BME280;20422;53.014;8.886;2022-07-23T12:40:36;101850.13;;;22.52;65.88
34145;BME280;20422;53.014;8.886;2022-07-23T12:43:09;101844.88;;;22.03;67.46
34145;BME280;20422;53.014;8.886;2022-07-23T12:45:54;101855.38;;;21.98;67.18
34145;BME280;20422;53.014;8.886;2022-07-23T12:51:16;101865.88;;;23.21;66.19
34145;BME280;20422;53.014;8.886;2022-07-23T12:53:50;101843.34;;;23.27;66.59
34145;BME280;20422;53.014;8.886;2022-07-23T12:56:20;101847.28;;;22.44;65.29
34145;BME280;20422;53.014;8.886;2022-07-23T12:58:48;101864.84;;;22.04;66.00
34145;BME280;20422;53.014;8.886;2022-07-23T13:03:58;101864.41;;;22.46;64.49
34145;BME280;20422;53.014;8.886;2022-07-23T13:06:25;101858.69;;;22.12;67.22
34145;BME280;20422;53.014;8.886;2022-07-23T13:08:50;101851.41;;;22.30;66.48
34145;BME280;20422;53.014;8.886;2022-07-23T13:11:16;101857.97;;;22.10;65.38
34145;BME280;20422;53.014;8.886;2022-07-23T13:13:41;101864.34;;;22.73;64.44
34145;BME280;20422;53.014;8.886;2022-07-23T13:16:07;101861.66;;;23.09;64.89
34145;BME280;20422;53.014;8.886;2022-07-23T13:18:32;101868.94;;;22.73;63.06
34145;BME280;20422;53.014;8.886;2022-07-23T13:20:58;101862.47;;;21.91;62.34
34145;BME280;20422;53.014;8.886;2022-07-23T13:23:24;101874.97;;;22.31;62.25
34145;BME280;20422;53.014;8.886;2022-07-23T13:25:51;101837.38;;;22.60;64.80
34145;BME280;20422;53.014;8.886;2022-07-23T13:28:19;101848.78;;;22.83;62.43
34145;BME280;20422;53.014;8.886;2022-07-23T13:30:46;101858.38;;;23.23;60.95
34145;BME280;20422;53.014;8.886;2022-07-23T13:33:12;101858.50;;;23.39;58.39
34145;BME280;20422;53.014;8.886;2022-07-23T13:35:38;101828.66;;;23.28;56.99
34145;BME280;20422;53.014;8.886;2022-07-23T13:38:04;101845.56;;;23.49;58.82